Time;durP1;ratioP1;P1;durP2;ratioP2;P2;SDS_P1;SDS_P2;PMS_P1;PMS_P2;Temp;Humidity;BMP_temperature;BMP_pressure;BME280_temperature;BME280_humidity;BME280_pressure;Samples;Min_cycle;Max_cycle;Signal;HPM_P1;HPM_P2
2023/07/21 00:00:14;;;;;;;6.93;3.33;;;16.00;99.90;;;;;;5092733;28;20079;-75
2023/07/21 00:02:41;;;;;;;8.73;3.47;;;15.90;99.90;;;;;;5091608;28;20190;-75
2023/07/21 00:05:08;;;;;;;7.40;3.83;;;15.90;99.90;;;;;;5093261;28;20083;-75
2023/07/21 00:07:35;;;;;;;6.60;3.67;;;15.80;99.90;;;;;;5096339;28;20547;-75
2023/07/21 00:10:07;;;;;;;6.30;3.70;;;15.80;99.90;;;;;;5096757;28;20127;-75
2023/07/21 00:12:40;;;;;;;8.13;3.63;;;15.70;99.90;;;;;;5096258;28;20095;-75
2023/07/21 00:15:07;;;;;;;6.83;3.30;;;15.80;99.90;;;;;;5096637;28;20403;-74
2023/07/21 00:17:34;;;;;;;5.63;2.97;;;15.80;99.90;;;;;;5096163;28;20173;-75
2023/07/21 00:20:11;;;;;;;8.77;3.63;;;15.80;99.90;;;;;;5096633;28;20483;-75
2023/07/21 00:22:42;;;;;;;6.37;3.37;;;15.80;99.90;;;;;;5096116;28;20040;-75
2023/07/21 00:25:11;;;;;;;6.03;3.40;;;15.80;99.90;;;;;;5095278;28;20279;-75
2023/07/21 00:27:42;;;;;;;7.13;3.23;;;15.70;99.90;;;;;;5094799;28;20051;-75
2023/07/21 00:30:09;;;;;;;6.03;3.03;;;15.70;99.90;;;;;;5096232;28;20122;-74
2023/07/21 00:32:36;;;;;;;5.73;3.40;;;15.60;99.90;;;;;;5095824;28;20043;-75
2023/07/21 00:35:07;;;;;;;7.83;3.83;;;15.60;99.90;;;;;;5096299;28;20297;-75
2023/07/21 00:37:32;;;;;;;6.17;3.13;;;15.50;99.90;;;;;;5095855;28;20290;-75
2023/07/21 00:39:58;;;;;;;6.40;3.37;;;15.50;99.90;;;;;;5095298;28;20290;-75
2023/07/21 00:42:24;;;;;;;5.37;3.43;;;15.50;99.90;;;;;;5095673;28;20052;-75
2023/07/21 00:44:50;;;;;;;5.83;3.10;;;15.50;99.90;;;;;;5094554;28;20071;-75
2023/07/21 00:47:16;;;;;;;6.17;3.30;;;15.40;99.90;;;;;;5095879;28;20055;-75
2023/07/21 00:49:43;;;;;;;6.37;3.20;;;15.30;99.90;;;;;;5095604;28;20108;-75
2023/07/21 00:52:10;;;;;;;8.87;3.40;;;15.30;99.90;;;;;;5094799;28;20090;-75
2023/07/21 00:54:36;;;;;;;9.13;3.03;;;15.30;99.90;;;;;;5095472;28;20047;-75
2023/07/21 00:57:02;;;;;;;6.40;3.17;;;15.30;99.90;;;;;;5094678;28;20298;-75
2023/07/21 00:59:29;;;;;;;6.73;3.43;;;15.20;99.90;;;;;;5095473;28;20048;-75
2023/07/21 01:01:56;;;;;;;6.57;3.70;;;15.30;99.90;;;;;;5094824;28;20055;-74
2023/07/21 01:04:23;;;;;;;6.93;3.33;;;15.20;99.90;;;;;;5094595;28;20051;-74
2023/07/21 01:06:49;;;;;;;5.07;2.87;;;15.20;99.90;;;;;;5095319;28;20278;-74
2023/07/21 01:09:16;;;;;;;5.00;2.87;;;15.30;99.90;;;;;;5095405;28;20285;-74
2023/07/21 01:11:42;;;;;;;5.53;2.83;;;15.30;99.90;;;;;;5095153;28;20134;-74
2023/07/21 01:14:09;;;;;;;7.40;3.40;;;15.30;99.90;;;;;;5095411;28;20369;-74
2023/07/21 01:16:43;;;;;;;9.10;3.70;;;15.40;99.90;;;;;;5093146;28;20036;-74
2023/07/21 01:19:13;;;;;;;5.93;3.30;;;15.40;99.90;;;;;;5095394;28;20289;-74
2023/07/21 01:22:02;;;;;;;6.93;3.10;;;15.50;99.90;;;;;;5095040;28;20058;-74
2023/07/21 01:24:48;;;;;;;7.53;3.70;;;15.40;99.90;;;;;;5093724;28;20309;-74
2023/07/21 01:27:15;;;;;;;6.37;3.10;;;15.40;99.90;;;;;;5095213;28;20348;-74
2023/07/21 01:29:43;;;;;;;6.73;3.20;;;15.40;99.90;;;;;;5094876;28;20757;-74
2023/07/21 01:32:12;;;;;;;5.63;3.30;;;15.30;99.90;;;;;;5095027;28;20361;-74
2023/07/21 01:34:39;;;;;;;7.03;3.27;;;15.30;99.90;;;;;;5093715;28;20286;-74
2023/07/21 01:37:09;;;;;;;7.47;3.23;;;15.20;99.90;;;;;;5094881;28;20302;-74
2023/07/21 01:39:37;;;;;;;7.00;3.10;;;15.20;99.90;;;;;;5094449;28;20634;-74
2023/07/21 01:42:06;;;;;;;6.83;3.17;;;15.10;99.90;;;;;;5094833;28;20278;-74
2023/07/21 01:44:33;;;;;;;6.20;3.40;;;15.10;99.90;;;;;;5094062;28;20290;-74
2023/07/21 01:46:58;;;;;;;7.93;3.00;;;15.10;99.90;;;;;;5094697;28;20290;-74
2023/07/21 01:49:24;;;;;;;6.60;3.30;;;15.10;99.90;;;;;;5094666;28;20285;-74
2023/07/21 01:51:56;;;;;;;7.20;3.53;;;15.10;99.90;;;;;;5094293;28;20450;-74
2023/07/21 01:54:42;;;;;;;6.63;3.27;;;15.10;99.90;;;;;;5095002;28;20131;-74
2023/07/21 01:57:11;;;;;;;6.47;3.40;;;15.10;99.90;;;;;;5094202;28;20436;-74
2023/07/21 01:59:39;;;;;;;6.47;3.17;;;15.00;99.90;;;;;;5093972;28;20766;-75
2023/07/21 02:02:05;;;;;;;8.37;4.30;;;15.00;99.90;;;;;;5094585;28;20289;-74
2023/07/21 02:04:32;;;;;;;7.10;3.53;;;14.90;99.90;;;;;;5094081;28;20313;-74
2023/07/21 02:06:57;;;;;;;7.73;3.77;;;14.80;99.90;;;;;;5094382;28;20679;-74
2023/07/21 02:09:24;;;;;;;5.40;3.40;;;14.80;99.90;;;;;;5093311;28;20369;-74
2023/07/21 02:11:49;;;;;;;8.53;3.80;;;14.70;99.90;;;;;;5093739;28;20044;-74
2023/07/21 02:14:16;;;;;;;7.03;4.13;;;14.70;99.90;;;;;;5092691;28;20274;-74
2023/07/21 02:16:41;;;;;;;5.97;3.60;;;14.70;99.90;;;;;;5092646;28;20112;-74
2023/07/21 02:19:07;;;;;;;6.77;3.47;;;14.70;99.90;;;;;;5094077;28;20668;-74
2023/07/21 02:21:33;;;;;;;5.60;3.23;;;14.70;99.90;;;;;;5094042;28;20044;-74
2023/07/21 02:23:59;;;;;;;5.63;3.53;;;14.70;99.90;;;;;;5094010;28;20109;-74
2023/07/21 02:26:25;;;;;;;7.37;4.43;;;14.70;99.90;;;;;;5093964;28;20315;-74
2023/07/21 02:28:52;;;;;;;8.07;3.73;;;14.70;99.90;;;;;;5092631;28;20274;-74
2023/07/21 02:31:18;;;;;;;6.27;3.50;;;14.70;99.90;;;;;;5093985;28;20097;-74
2023/07/21 02:33:43;;;;;;;7.47;3.50;;;14.70;99.90;;;;;;5093422;28;20278;-74
2023/07/21 02:36:09;;;;;;;7.90;3.70;;;14.70;99.90;;;;;;5092469;28;20124;-74
2023/07/21 02:38:35;;;;;;;6.47;3.70;;;14.60;99.90;;;;;;5093567;28;20083;-74
2023/07/21 02:41:05;;;;;;;6.37;3.97;;;14.60;99.90;;;;;;5093733;28;20440;-74
2023/07/21 02:43:32;;;;;;;6.07;3.93;;;14.70;99.90;;;;;;5093606;28;20071;-73
2023/07/21 02:45:58;;;;;;;6.50;3.70;;;14.60;99.90;;;;;;5093294;28;20286;-74
2023/07/21 02:48:24;;;;;;;7.07;4.27;;;14.60;99.90;;;;;;5075744;28;20285;-74
2023/07/21 02:50:51;;;;;;;5.90;3.67;;;14.60;99.90;;;;;;5092039;28;20404;-74
2023/07/21 02:53:19;;;;;;;6.43;4.10;;;14.60;99.90;;;;;;5093479;28;20132;-74
2023/07/21 02:55:46;;;;;;;7.20;4.40;;;14.60;99.90;;;;;;5091903;28;20302;-74
2023/07/21 02:58:13;;;;;;;6.93;4.50;;;14.50;99.90;;;;;;5093666;28;20706;-74
2023/07/21 03:00:40;;;;;;;7.50;4.57;;;14.50;99.90;;;;;;5093201;28;20280;-74
2023/07/21 03:03:08;;;;;;;6.83;4.57;;;14.50;99.90;;;;;;5093259;28;20289;-74
2023/07/21 03:05:35;;;;;;;6.77;4.53;;;14.50;99.90;;;;;;5093239;28;20270;-74
2023/07/21 03:08:00;;;;;;;6.43;4.70;;;14.40;99.90;;;;;;5092983;28;20282;-74
2023/07/21 03:10:27;;;;;;;9.13;5.07;;;14.50;99.90;;;;;;5093189;28;20300;-74
2023/07/21 03:12:53;;;;;;;8.73;4.50;;;14.50;99.90;;;;;;5092911;28;20059;-74
2023/07/21 03:15:19;;;;;;;6.43;3.80;;;14.50;99.90;;;;;;5093296;28;20298;-74
2023/07/21 03:17:44;;;;;;;12.03;5.17;;;14.50;99.90;;;;;;5092913;28;20123;-74
2023/07/21 03:20:12;;;;;;;7.20;4.53;;;14.40;99.90;;;;;;5092053;28;20203;-74
2023/07/21 03:22:42;;;;;;;7.37;4.43;;;14.40;99.90;;;;;;5093088;28;20052;-74
2023/07/21 03:25:09;;;;;;;6.17;4.17;;;14.40;99.90;;;;;;5093001;28;20329;-74
2023/07/21 03:27:35;;;;;;;8.03;4.50;;;14.40;99.90;;;;;;5092015;28;20290;-74
2023/07/21 03:30:02;;;;;;;6.70;4.63;;;14.30;99.90;;;;;;5092709;28;20297;-74
2023/07/21 03:32:28;;;;;;;6.77;4.40;;;14.30;99.90;;;;;;5092985;28;20274;-74
2023/07/21 03:34:57;;;;;;;6.87;4.13;;;14.40;99.90;;;;;;5092673;28;20289;-74
2023/07/21 03:37:25;;;;;;;9.27;4.70;;;14.30;99.90;;;;;;5091786;28;20079;-74
2023/07/21 03:39:52;;;;;;;6.83;5.07;;;14.30;99.90;;;;;;5095055;28;20355;-74
2023/07/21 03:42:18;;;;;;;7.40;4.70;;;14.30;99.90;;;;;;5099599;28;20742;-74
2023/07/21 03:44:50;;;;;;;8.53;4.70;;;14.30;99.90;;;;;;5099535;28;20316;-75
2023/07/21 03:47:19;;;;;;;8.03;4.57;;;14.30;99.90;;;;;;5098981;28;20305;-75
2023/07/21 03:49:50;;;;;;;7.27;4.30;;;14.20;99.90;;;;;;5098164;28;20312;-75
2023/07/21 03:52:18;;;;;;;7.80;4.87;;;14.20;99.90;;;;;;5099917;28;20368;-75
2023/07/21 03:54:43;;;;;;;7.90;4.93;;;14.30;99.90;;;;;;5099391;28;20286;-74
2023/07/21 03:57:10;;;;;;;7.37;4.57;;;14.30;99.90;;;;;;5099431;28;20304;-75
2023/07/21 03:59:38;;;;;;;7.40;4.40;;;14.20;99.90;;;;;;5099576;28;20177;-75
2023/07/21 04:02:04;;;;;;;9.83;4.90;;;14.20;99.90;;;;;;5099215;28;20315;-75
2023/07/21 04:04:32;;;;;;;6.97;4.50;;;14.30;99.90;;;;;;5099482;28;20289;-74
2023/07/21 04:07:01;;;;;;;7.63;4.20;;;14.30;99.90;;;;;;5081631;28;20317;-75
2023/07/21 04:09:28;;;;;;;9.60;4.67;;;14.30;99.90;;;;;;5099181;28;20782;-75
2023/07/21 04:11:53;;;;;;;6.97;3.90;;;14.30;99.90;;;;;;5099134;28;20281;-75
2023/07/21 04:14:19;;;;;;;7.43;4.37;;;14.30;99.90;;;;;;5098644;28;20286;-75
2023/07/21 04:16:45;;;;;;;7.20;3.87;;;14.30;99.90;;;;;;5099212;28;20040;-75
2023/07/21 04:19:11;;;;;;;9.10;3.40;;;14.30;99.90;;;;;;5098986;28;20044;-75
2023/07/21 04:21:37;;;;;;;6.57;3.80;;;14.30;99.90;;;;;;5099244;28;20051;-75
2023/07/21 04:24:03;;;;;;;7.07;3.90;;;14.30;99.90;;;;;;5098007;28;20286;-75
2023/07/21 04:26:29;;;;;;;7.27;3.67;;;14.30;99.90;;;;;;5099159;28;20276;-75
2023/07/21 04:28:55;;;;;;;6.63;4.00;;;14.30;99.90;;;;;;5098941;28;20368;-75
2023/07/21 04:31:22;;;;;;;8.23;4.30;;;14.30;99.90;;;;;;5099187;28;20136;-75
2023/07/21 04:33:51;;;;;;;6.70;3.53;;;14.30;99.90;;;;;;5099087;28;20055;-74
2023/07/21 04:36:16;;;;;;;7.23;3.83;;;14.40;99.90;;;;;;5099355;28;20308;-74
2023/07/21 04:38:42;;;;;;;6.27;3.80;;;14.40;99.90;;;;;;5097999;28;20278;-75
2023/07/21 04:41:08;;;;;;;6.80;4.10;;;14.40;99.90;;;;;;5097468;28;20048;-75
2023/07/21 04:43:33;;;;;;;10.83;4.07;;;14.40;99.90;;;;;;5097559;28;20052;-74
2023/07/21 04:45:59;;;;;;;6.00;3.73;;;14.40;99.90;;;;;;5097636;28;20391;-74
2023/07/21 04:48:25;;;;;;;9.87;3.93;;;14.50;99.90;;;;;;5099015;28;20507;-74
2023/07/21 04:50:51;;;;;;;6.43;3.73;;;14.50;99.90;;;;;;5097998;28;20060;-75
2023/07/21 04:53:17;;;;;;;6.07;3.50;;;14.50;99.90;;;;;;5095402;28;20048;-75
2023/07/21 04:55:43;;;;;;;9.17;4.00;;;14.60;99.90;;;;;;5095677;28;20767;-75
2023/07/21 04:58:08;;;;;;;6.47;3.83;;;14.70;99.90;;;;;;5095415;28;20048;-75
2023/07/21 05:00:34;;;;;;;6.23;3.50;;;14.70;99.90;;;;;;5094431;28;20492;-75
2023/07/21 05:03:00;;;;;;;8.10;3.60;;;14.70;99.90;;;;;;5094403;28;20044;-75
2023/07/21 05:05:27;;;;;;;5.57;3.23;;;14.70;99.90;;;;;;5095560;28;20434;-75
2023/07/21 05:07:53;;;;;;;8.43;3.83;;;14.80;99.90;;;;;;5094332;28;20278;-75
2023/07/21 05:10:19;;;;;;;6.57;3.67;;;14.80;99.90;;;;;;5094218;28;20788;-75
2023/07/21 05:12:45;;;;;;;7.97;3.73;;;14.80;99.90;;;;;;5095396;28;20428;-75
2023/07/21 05:15:13;;;;;;;7.00;3.30;;;14.90;99.90;;;;;;5095015;28;20055;-75
2023/07/21 05:17:40;;;;;;;8.17;3.90;;;15.00;99.90;;;;;;5095273;28;20047;-75
2023/07/21 05:20:07;;;;;;;7.27;3.60;;;15.10;99.90;;;;;;5095022;28;20361;-75
2023/07/21 05:22:34;;;;;;;8.60;3.30;;;15.10;99.90;;;;;;5095188;28;20290;-75
2023/07/21 05:24:59;;;;;;;7.23;4.03;;;15.10;99.90;;;;;;5094648;28;20776;-75
2023/07/21 05:27:25;;;;;;;8.23;3.67;;;15.10;99.90;;;;;;5095360;28;20274;-75
2023/07/21 05:29:51;;;;;;;6.97;3.70;;;15.20;99.90;;;;;;5095152;28;20096;-75
2023/07/21 05:32:16;;;;;;;7.67;3.37;;;15.30;99.90;;;;;;5094783;28;20044;-75
2023/07/21 05:34:42;;;;;;;6.80;3.37;;;15.30;99.90;;;;;;5094900;28;20209;-75
2023/07/21 05:37:11;;;;;;;10.90;3.50;;;15.50;99.90;;;;;;5094608;28;20047;-75
2023/07/21 05:39:37;;;;;;;6.00;3.30;;;15.70;99.90;;;;;;5094962;28;20044;-75
2023/07/21 05:42:04;;;;;;;6.73;3.53;;;15.90;99.90;;;;;;5093939;28;20630;-75
2023/07/21 05:44:30;;;;;;;6.53;3.10;;;16.10;99.90;;;;;;5094649;28;20087;-75
2023/07/21 05:46:55;;;;;;;6.90;3.23;;;16.30;99.90;;;;;;5094762;28;20729;-75
2023/07/21 05:49:22;;;;;;;7.73;3.13;;;16.50;99.90;;;;;;5076609;28;20067;-75
2023/07/21 05:51:48;;;;;;;6.43;3.37;;;16.70;99.90;;;;;;5093240;28;20527;-75
2023/07/21 05:54:14;;;;;;;7.77;3.37;;;16.90;99.90;;;;;;5094447;28;20374;-75
2023/07/21 05:56:40;;;;;;;5.67;2.90;;;17.30;99.90;;;;;;5094368;28;20071;-75
2023/07/21 05:59:06;;;;;;;5.40;2.97;;;18.30;99.90;;;;;;5094256;28;20047;-75
2023/07/21 06:01:34;;;;;;;8.27;3.00;;;19.40;99.90;;;;;;5093808;28;20044;-76
2023/07/21 06:04:00;;;;;;;6.07;2.80;;;20.50;99.90;;;;;;5094386;28;20117;-75
2023/07/21 06:06:26;;;;;;;4.70;2.40;;;21.30;99.90;;;;;;5093902;28;20043;-76
2023/07/21 06:08:51;;;;;;;8.00;2.90;;;22.00;99.90;;;;;;5094337;28;20047;-74
2023/07/21 06:11:17;;;;;;;6.43;2.57;;;22.90;99.90;;;;;;5093989;28;20050;-75
2023/07/21 06:13:43;;;;;;;6.00;2.67;;;23.70;99.90;;;;;;5094203;28;20044;-78
2023/07/21 06:16:09;;;;;;;6.47;2.97;;;24.30;99.90;;;;;;5092806;28;20051;-76
2023/07/21 06:18:35;;;;;;;6.90;2.80;;;24.80;99.90;;;;;;5093189;28;20075;-76
2023/07/21 06:21:03;;;;;;;7.50;3.23;;;25.40;99.10;;;;;;5093146;28;20104;-75
2023/07/21 06:23:29;;;;;;;6.47;2.47;;;26.10;95.00;;;;;;5094078;28;20116;-75
2023/07/21 06:25:55;;;;;;;6.77;2.27;;;26.60;91.10;;;;;;5094217;28;20123;-76
2023/07/21 06:28:20;;;;;;;7.13;2.73;;;27.20;80.90;;;;;;5093896;28;20502;-76
2023/07/21 06:30:46;;;;;;;7.07;2.93;;;27.80;75.40;;;;;;5094072;28;20047;-81
2023/07/21 06:33:12;;;;;;;5.97;2.47;;;28.20;67.30;;;;;;5093913;28;20048;-83
2023/07/21 06:35:38;;;;;;;8.50;2.20;;;28.70;63.60;;;;;;5092967;28;20093;-84
2023/07/21 06:38:03;;;;;;;7.17;2.60;;;29.40;60.30;;;;;;5096876;28;20098;-84
2023/07/21 06:40:30;;;;;;;4.20;1.90;;;29.70;56.00;;;;;;5092651;28;20043;-84
2023/07/21 06:42:56;;;;;;;3.80;1.60;;;30.30;54.20;;;;;;5094219;28;20047;-83
2023/07/21 06:45:22;;;;;;;3.42;1.50;;;30.90;52.40;;;;;;5093919;28;20059;-83
2023/07/21 06:47:48;;;;;;;5.72;1.80;;;;;;;;;;5092649;28;20484;-84
2023/07/21 06:50:14;;;;;;;5.10;1.95;;;31.70;48.60;;;;;;5093330;28;20051;-84
2023/07/21 06:52:40;;;;;;;3.22;1.77;;;32.10;48.40;;;;;;5092792;28;20075;-84
2023/07/21 06:55:06;;;;;;;3.92;1.77;;;32.30;47.00;;;;;;5093588;28;20051;-85
2023/07/21 06:57:31;;;;;;;5.07;2.10;;;32.00;46.10;;;;;;5093227;28;20119;-84
2023/07/21 06:59:57;;;;;;;4.35;1.75;;;31.30;45.70;;;;;;5093303;28;20455;-84
2023/07/21 07:02:23;;;;;;;8.98;2.20;;;30.70;46.20;;;;;;5092962;28;20131;-84
2023/07/21 07:04:51;;;;;;;5.82;2.50;;;30.70;47.10;;;;;;5093469;28;20050;-84
2023/07/21 07:07:17;;;;;;;3.92;1.90;;;31.10;47.00;;;;;;5093186;28;20052;-84
2023/07/21 07:09:43;;;;;;;4.10;1.88;;;31.60;46.20;;;;;;5093594;28;20081;-85
2023/07/21 07:12:09;;;;;;;2.90;1.88;;;32.10;45.30;;;;;;5093355;28;20052;-85
2023/07/21 07:14:35;;;;;;;3.00;1.85;;;32.50;44.40;;;;;;5074556;28;20048;-84
2023/07/21 07:17:00;;;;;;;4.35;2.28;;;32.80;44.00;;;;;;5075245;28;20052;-84
2023/07/21 07:19:26;;;;;;;3.63;2.55;;;33.10;43.30;;;;;;5092919;28;20058;-83
2023/07/21 07:21:52;;;;;;;5.00;2.40;;;33.40;42.90;;;;;;5093342;28;20091;-81
2023/07/21 07:24:20;;;;;;;3.85;2.05;;;33.50;42.50;;;;;;5092883;28;20134;-82
2023/07/21 07:26:46;;;;;;;3.13;2.15;;;34.00;41.90;;;;;;5093152;28;20040;-81
2023/07/21 07:29:11;;;;;;;2.95;1.90;;;34.30;41.10;;;;;;5092072;28;20066;-81
2023/07/21 07:31:37;;;;;;;4.28;2.28;;;34.10;40.60;;;;;;5091980;28;20054;-82
2023/07/21 07:34:04;;;;;;;3.03;2.00;;;33.60;40.50;;;;;;5092021;28;20047;-82
2023/07/21 07:36:30;;;;;;;2.67;1.67;;;32.70;40.60;;;;;;5092683;28;20073;-82
2023/07/21 07:38:55;;;;;;;2.63;1.60;;;31.90;41.30;;;;;;5092258;28;20052;-82
2023/07/21 07:41:21;;;;;;;5.00;2.10;;;31.40;42.10;;;;;;5092971;28;20050;-81
2023/07/21 07:43:47;;;;;;;3.03;1.83;;;31.50;41.90;;;;;;5092777;28;20058;-81
2023/07/21 07:46:13;;;;;;;2.45;1.50;;;31.90;41.80;;;;;;5093131;28;20472;-76
2023/07/21 07:48:39;;;;;;;3.45;2.00;;;32.50;41.30;;;;;;5091955;28;20052;-82
2023/07/21 07:51:07;;;;;;;3.95;1.90;;;33.10;40.60;;;;;;5093422;28;20101;-82
2023/07/21 07:53:35;;;;;;;4.88;2.17;;;33.40;40.70;;;;;;5092561;28;20565;-81
2023/07/21 07:56:01;;;;;;;2.38;1.60;;;32.90;39.80;;;;;;5091880;28;20503;-81
2023/07/21 07:58:27;;;;;;;3.13;1.73;;;33.00;40.40;;;;;;5092438;28;20123;-81
2023/07/21 08:00:57;;;;;;;4.20;1.77;;;33.50;40.10;;;;;;5092677;28;20044;-81
2023/07/21 08:03:24;;;;;;;5.15;2.10;;;33.90;38.90;;;;;;5091212;28;20083;-77
2023/07/21 08:05:50;;;;;;;2.90;1.85;;;34.20;38.60;;;;;;5091449;28;20091;-78
2023/07/21 08:08:21;;;;;;;1.95;1.40;;;34.60;38.00;;;;;;5091391;28;20048;-78
2023/07/21 08:10:47;;;;;;;2.80;1.67;;;34.70;37.50;;;;;;5093013;28;20040;-79
2023/07/21 08:13:13;;;;;;;3.03;1.77;;;34.80;37.50;;;;;;5092979;28;20055;-78
2023/07/21 08:15:44;;;;;;;3.92;2.17;;;34.80;36.90;;;;;;5091463;28;20044;-76
2023/07/21 08:18:12;;;;;;;3.80;1.63;;;34.70;36.80;;;;;;5092714;28;20043;-72
2023/07/21 08:20:40;;;;;;;2.95;1.60;;;34.60;36.80;;;;;;5092418;28;20056;-72
2023/07/21 08:23:05;;;;;;;2.95;1.70;;;34.80;36.60;;;;;;5092645;28;20048;-73
2023/07/21 08:25:31;;;;;;;3.10;1.90;;;35.10;36.10;;;;;;5092152;28;20042;-73
2023/07/21 08:27:59;;;;;;;3.75;1.92;;;35.20;36.10;;;;;;5095449;28;20040;-72
2023/07/21 08:30:25;;;;;;;2.20;1.60;;;35.30;36.20;;;;;;5096261;28;20044;-72
2023/07/21 08:32:51;;;;;;;3.90;1.70;;;35.30;31.70;;;;;;5096941;28;20050;-70
2023/07/21 08:35:17;;;;;;;1.70;1.50;;;35.30;34.50;;;;;;5095472;28;20412;-71
2023/07/21 08:37:42;;;;;;;3.00;1.67;;;35.30;34.40;;;;;;5096091;28;20067;-71
2023/07/21 08:40:09;;;;;;;2.95;1.50;;;35.10;34.10;;;;;;5096240;28;20472;-71
2023/07/21 08:42:36;;;;;;;2.45;1.50;;;34.90;34.80;;;;;;5095892;28;20488;-71
2023/07/21 08:45:04;;;;;;;3.88;2.03;;;34.00;35.40;;;;;;5095670;28;20523;-71
2023/07/21 08:47:31;;;;;;;2.08;1.33;;;33.40;36.90;;;;;;5095772;28;20119;-71
2023/07/21 08:49:57;;;;;;;2.53;1.50;;;32.70;37.30;;;;;;5096020;28;20499;-71
2023/07/21 08:52:25;;;;;;;2.83;1.63;;;31.80;37.20;;;;;;5095907;28;20039;-74
2023/07/21 08:54:51;;;;;;;1.63;1.38;;;31.10;38.10;;;;;;5096069;28;20066;-70
2023/07/21 08:57:18;;;;;;;1.95;1.55;;;30.60;38.60;;;;;;5096093;28;20080;-70
2023/07/21 08:59:44;;;;;;;3.53;1.90;;;30.10;39.40;;;;;;5095716;28;20052;-71
2023/07/21 09:02:10;;;;;;;2.72;1.80;;;29.70;39.50;;;;;;5095797;28;20046;-75
2023/07/21 09:04:36;;;;;;;2.40;1.50;;;29.40;39.80;;;;;;5077560;28;20093;-75
2023/07/21 09:07:03;;;;;;;2.33;1.40;;;29.00;39.50;;;;;;5095761;28;20036;-76
2023/07/21 09:09:31;;;;;;;3.13;1.60;;;28.80;39.50;;;;;;5094192;28;20130;-75
2023/07/21 09:12:07;;;;;;;4.10;1.50;;;28.60;40.00;;;;;;5095161;28;20507;-72
2023/07/21 09:14:44;;;;;;;1.88;1.30;;;28.50;40.90;;;;;;5095249;28;20048;-72
2023/07/21 09:17:12;;;;;;;3.08;1.30;;;28.30;41.70;;;;;;5095431;28;20105;-73
2023/07/21 09:19:41;;;;;;;2.25;1.15;;;28.40;41.10;;;;;;5095173;28;20083;-72
2023/07/21 09:22:07;;;;;;;2.13;1.38;;;28.20;40.90;;;;;;5095527;28;20079;-76
2023/07/21 09:24:33;;;;;;;1.98;1.20;;;28.10;40.80;;;;;;5093968;28;20052;-72
2023/07/21 09:27:13;;;;;;;2.83;1.42;;;28.00;41.00;;;;;;5095314;28;20040;-73
2023/07/21 09:29:42;;;;;;;2.17;1.50;;;27.80;41.30;;;;;;5093979;28;20127;-72
2023/07/21 09:32:19;;;;;;;2.15;1.45;;;27.60;41.10;;;;;;5095176;28;20484;-76
2023/07/21 09:34:56;;;;;;;3.35;1.80;;;27.30;42.20;;;;;;5094890;28;20560;-70
2023/07/21 09:37:28;;;;;;;3.65;1.50;;;27.10;43.50;;;;;;5094339;28;20143;-71
2023/07/21 09:39:57;;;;;;;2.78;1.40;;;26.90;43.50;;;;;;5093812;28;20135;-71
2023/07/21 09:42:23;;;;;;;2.67;1.50;;;26.60;44.30;;;;;;5093841;28;20430;-70
2023/07/21 09:44:52;;;;;;;3.75;1.50;;;26.40;44.80;;;;;;5093310;28;20059;-71
2023/07/21 09:47:19;;;;;;;3.40;1.60;;;26.20;45.30;;;;;;5095090;28;20040;-75
2023/07/21 09:49:46;;;;;;;4.10;1.83;;;26.00;46.50;;;;;;5094603;28;20040;-70
2023/07/21 09:52:15;;;;;;;3.97;2.28;;;25.80;46.90;;;;;;5093534;28;20423;-74
2023/07/21 09:55:06;;;;;;;3.47;2.40;;;25.70;47.60;;;;;;5094514;28;20059;-73
2023/07/21 09:57:36;;;;;;;5.50;2.00;;;25.60;48.20;;;;;;5093144;28;20079;-73
2023/07/21 10:00:07;;;;;;;4.22;2.83;;;25.60;48.60;;;;;;5094948;28;20055;-74
2023/07/21 10:02:35;;;;;;;3.00;1.60;;;25.60;48.90;;;;;;5092651;28;20055;-74
2023/07/21 10:05:04;;;;;;;3.75;1.42;;;25.60;48.90;;;;;;5094737;28;20123;-75
2023/07/21 10:07:32;;;;;;;4.63;1.60;;;25.60;49.20;;;;;;5094631;28;20044;-72
2023/07/21 10:09:59;;;;;;;3.53;1.90;;;25.70;49.20;;;;;;5094486;28;20083;-73
2023/07/21 10:12:46;;;;;;;4.72;1.80;;;25.70;49.30;;;;;;5093216;28;20051;-73
2023/07/21 10:15:29;;;;;;;3.67;1.90;;;25.70;49.20;;;;;;5093581;28;20056;-76
2023/07/21 10:17:57;;;;;;;4.20;1.87;;;25.70;49.10;;;;;;5094329;28;20043;-75
2023/07/21 10:20:39;;;;;;;4.43;1.80;;;25.70;48.90;;;;;;5094463;28;20109;-76
2023/07/21 10:23:05;;;;;;;4.00;1.60;;;25.80;49.40;;;;;;5094714;28;20055;-73
2023/07/21 10:25:53;;;;;;;2.73;1.50;;;25.90;49.20;;;;;;5094224;28;20054;-73
2023/07/21 10:28:23;;;;;;;2.35;1.50;;;25.90;49.00;;;;;;5094214;28;20123;-73
2023/07/21 10:30:50;;;;;;;3.67;1.97;;;25.80;48.70;;;;;;5093900;28;20044;-74
2023/07/21 10:33:20;;;;;;;2.97;1.43;;;25.90;48.30;;;;;;5094188;28;20048;-73
2023/07/21 10:35:46;;;;;;;2.47;1.47;;;25.80;47.90;;;;;;5092609;28;20044;-73
2023/07/21 10:38:15;;;;;;;3.10;1.70;;;25.90;47.20;;;;;;5094187;28;20079;-73
2023/07/21 10:40:45;;;;;;;4.97;1.60;;;25.80;47.30;;;;;;5093376;28;20426;-75
2023/07/21 10:43:12;;;;;;;3.00;1.40;;;25.80;47.30;;;;;;5094036;28;20084;-74
2023/07/21 10:45:38;;;;;;;2.80;1.70;;;25.80;47.20;;;;;;5093620;28;20117;-74
2023/07/21 10:48:12;;;;;;;3.17;1.90;;;25.80;47.10;;;;;;5093416;28;20568;-73
2023/07/21 10:50:54;;;;;;;7.70;2.05;;;25.70;47.30;;;;;;5074933;28;20058;-74
2023/07/21 10:53:23;;;;;;;4.17;1.60;;;25.60;48.00;;;;;;5092637;28;20036;-69
2023/07/21 10:55:53;;;;;;;3.40;1.80;;;25.60;48.30;;;;;;5093286;28;20075;-74
2023/07/21 10:58:19;;;;;;;3.97;1.90;;;25.70;49.20;;;;;;5093720;28;20044;-74
2023/07/21 11:00:47;;;;;;;3.47;1.73;;;25.70;48.50;;;;;;5092004;28;20048;-74
2023/07/21 11:03:13;;;;;;;2.97;1.60;;;25.60;48.80;;;;;;5093568;28;20070;-74
2023/07/21 11:05:39;;;;;;;3.80;2.17;;;25.50;49.10;;;;;;5093320;28;20480;-73
2023/07/21 11:08:05;;;;;;;3.33;1.77;;;25.50;49.00;;;;;;5091933;28;20063;-73
2023/07/21 11:10:34;;;;;;;3.80;2.07;;;25.40;49.00;;;;;;5092084;28;20051;-73
2023/07/21 11:13:01;;;;;;;5.43;2.10;;;25.30;49.30;;;;;;5090914;28;20043;-73
2023/07/21 11:15:27;;;;;;;4.40;2.07;;;25.30;49.50;;;;;;5091158;28;20500;-73
2023/07/21 11:18:00;;;;;;;5.53;2.30;;;25.40;49.70;;;;;;5091017;28;20079;-73
2023/07/21 11:20:26;;;;;;;5.03;2.57;;;25.40;50.00;;;;;;5091315;28;20048;-73
2023/07/21 11:22:52;;;;;;;3.70;2.10;;;25.40;49.70;;;;;;5090883;28;20050;-73
2023/07/21 11:25:18;;;;;;;4.13;2.10;;;25.30;50.00;;;;;;5091851;28;20127;-73
2023/07/21 11:27:45;;;;;;;4.33;2.27;;;25.30;50.10;;;;;;5075147;28;20106;-73
2023/07/21 11:30:17;;;;;;;4.20;2.40;;;25.20;50.30;;;;;;5093347;28;20059;-73
2023/07/21 11:32:42;;;;;;;4.47;2.60;;;25.20;50.60;;;;;;5093218;28;20446;-74
2023/07/21 11:35:08;;;;;;;4.53;2.30;;;25.20;50.90;;;;;;5093068;28;20136;-73
2023/07/21 11:37:44;;;;;;;4.80;2.80;;;25.10;51.50;;;;;;5092947;28;20086;-73
2023/07/21 11:40:15;;;;;;;5.83;3.00;;;25.20;51.60;;;;;;5092007;28;20588;-73
2023/07/21 11:42:49;;;;;;;4.93;2.97;;;25.20;51.70;;;;;;5093378;28;20131;-73
2023/07/21 11:45:39;;;;;;;6.65;3.15;;;25.10;52.10;;;;;;5091461;28;20056;-73
2023/07/21 11:48:21;;;;;;;5.53;3.47;;;25.10;52.60;;;;;;5092634;28;20121;-73
2023/07/21 11:50:52;;;;;;;4.80;2.97;;;25.00;52.40;;;;;;5092684;28;20097;-73
2023/07/21 11:53:23;;;;;;;5.17;3.17;;;24.80;52.50;;;;;;5092004;28;20091;-73
2023/07/21 11:55:49;;;;;;;6.10;3.30;;;24.80;53.40;;;;;;5092562;28;20040;-73
2023/07/21 11:58:15;;;;;;;4.93;2.80;;;24.80;53.90;;;;;;5093061;28;20040;-73
2023/07/21 12:00:42;;;;;;;5.27;3.00;;;24.80;53.90;;;;;;5093839;28;20051;-73
2023/07/21 12:03:09;;;;;;;6.33;3.33;;;24.70;54.10;;;;;;5096658;28;20052;-73
2023/07/21 12:05:35;;;;;;;4.43;2.80;;;24.60;54.60;;;;;;5096906;28;20044;-73
2023/07/21 12:08:01;;;;;;;4.87;2.70;;;24.40;55.00;;;;;;5096609;28;20048;-73
2023/07/21 12:10:27;;;;;;;7.60;2.87;;;24.10;57.20;;;;;;5096775;28;20523;-73
2023/07/21 12:12:53;;;;;;;5.17;3.20;;;23.80;66.50;;;;;;5096460;28;20044;-73
2023/07/21 12:15:19;;;;;;;5.83;3.37;;;23.40;82.40;;;;;;5096317;28;20403;-74
2023/07/21 12:17:48;;;;;;;8.93;3.27;;;22.90;92.70;;;;;;5096626;28;20050;-74
2023/07/21 12:20:14;;;;;;;12.53;3.73;;;22.30;96.60;;;;;;5096607;28;20040;-76
2023/07/21 12:22:40;;;;;;;8.00;3.17;;;21.70;99.90;;;;;;5079031;28;20442;-79
2023/07/21 12:25:10;;;;;;;5.23;2.70;;;21.20;99.90;;;;;;5096453;28;20040;-78
2023/07/21 12:27:36;;;;;;;5.60;2.37;;;20.80;99.90;;;;;;5096818;28;20400;-78
2023/07/21 12:30:10;;;;;;;4.67;2.03;;;20.40;99.90;;;;;;5096315;28;20074;-78
2023/07/21 12:32:36;;;;;;;6.97;2.40;;;20.10;99.90;;;;;;5096909;28;20122;-78
2023/07/21 12:35:04;;;;;;;3.70;2.07;;;19.80;99.90;;;;;;5096268;28;20198;-77
2023/07/21 12:37:31;;;;;;;6.80;2.60;;;19.60;99.90;;;;;;5094997;28;20135;-77
2023/07/21 12:39:56;;;;;;;3.93;2.10;;;19.50;99.90;;;;;;5095893;28;20457;-76
2023/07/21 12:42:23;;;;;;;3.03;1.97;;;19.40;99.90;;;;;;5095488;28;20430;-76
2023/07/21 12:44:49;;;;;;;5.37;1.80;;;19.40;99.90;;;;;;5096066;28;20048;-76
2023/07/21 12:47:15;;;;;;;5.80;2.27;;;19.20;99.90;;;;;;5095895;28;20123;-77
2023/07/21 12:49:40;;;;;;;4.00;2.00;;;19.10;99.90;;;;;;5096394;28;20051;-77